sensor_id;sensor_type;location;lat;lon;timestamp;temperature;humidity
14192;DHT22;7177;48.572;7.838;2023-06-10T00:02:07;19.30;99.90
14192;DHT22;7177;48.572;7.838;2023-06-10T00:04:33;19.20;99.90
14192;DHT22;7177;48.572;7.838;2023-06-10T00:06:59;19.20;99.90
14192;DHT22;7177;48.572;7.838;2023-06-10T00:09:24;19.10;99.90
14192;DHT22;7177;48.572;7.838;2023-06-10T00:11:51;19.10;99.90
14192;DHT22;7177;48.572;7.838;2023-06-10T00:14:16;19.10;99.90
14192;DHT22;7177;48.572;7.838;2023-06-10T00:16:42;19.20;99.90
14192;DHT22;7177;48.572;7.838;2023-06-10T00:19:10;19.20;99.90
14192;DHT22;7177;48.572;7.838;2023-06-10T00:21:39;19.10;99.90
14192;DHT22;7177;48.572;7.838;2023-06-10T00:24:06;18.90;99.90
14192;DHT22;7177;48.572;7.838;2023-06-10T00:26:35;18.70;99.90
14192;DHT22;7177;48.572;7.838;2023-06-10T00:29:01;18.70;99.90
14192;DHT22;7177;48.572;7.838;2023-06-10T00:31:26;18.70;99.90
14192;DHT22;7177;48.572;7.838;2023-06-10T00:33:52;18.70;99.90
14192;DHT22;7177;48.572;7.838;2023-06-10T00:36:18;18.60;99.90
14192;DHT22;7177;48.572;7.838;2023-06-10T00:38:44;18.50;99.90
14192;DHT22;7177;48.572;7.838;2023-06-10T00:41:09;18.40;99.90
14192;DHT22;7177;48.572;7.838;2023-06-10T00:43:34;18.40;99.90
14192;DHT22;7177;48.572;7.838;2023-06-10T00:46:00;18.40;99.90
14192;DHT22;7177;48.572;7.838;2023-06-10T00:48:27;18.40;99.90
14192;DHT22;7177;48.572;7.838;2023-06-10T00:50:52;18.40;99.90
14192;DHT22;7177;48.572;7.838;2023-06-10T00:53:19;18.30;99.90
14192;DHT22;7177;48.572;7.838;2023-06-10T00:55:46;18.30;99.90
14192;DHT22;7177;48.572;7.838;2023-06-10T00:58:12;18.30;99.90
14192;DHT22;7177;48.572;7.838;2023-06-10T01:00:37;18.40;99.90
14192;DHT22;7177;48.572;7.838;2023-06-10T01:03:03;18.50;99.90
14192;DHT22;7177;48.572;7.838;2023-06-10T01:05:36;18.50;99.90
14192;DHT22;7177;48.572;7.838;2023-06-10T01:08:31;18.50;99.90
14192;DHT22;7177;48.572;7.838;2023-06-10T01:11:00;18.30;99.90
14192;DHT22;7177;48.572;7.838;2023-06-10T01:13:26;18.30;99.90
14192;DHT22;7177;48.572;7.838;2023-06-10T01:15:55;18.10;99.90
14192;DHT22;7177;48.572;7.838;2023-06-10T01:18:21;18.10;99.90
14192;DHT22;7177;48.572;7.838;2023-06-10T01:20:47;18.10;99.90
14192;DHT22;7177;48.572;7.838;2023-06-10T01:23:14;18.10;99.90
14192;DHT22;7177;48.572;7.838;2023-06-10T01:25:43;18.10;99.90
14192;DHT22;7177;48.572;7.838;2023-06-10T01:31:18;17.90;99.90
14192;DHT22;7177;48.572;7.838;2023-06-10T01:33:49;17.90;99.90
14192;DHT22;7177;48.572;7.838;2023-06-10T01:36:17;17.80;99.90
14192;DHT22;7177;48.572;7.838;2023-06-10T01:38:45;17.70;99.90
14192;DHT22;7177;48.572;7.838;2023-06-10T01:41:12;17.70;99.90
14192;DHT22;7177;48.572;7.838;2023-06-10T01:43:38;17.80;99.90
14192;DHT22;7177;48.572;7.838;2023-06-10T01:46:04;17.80;99.90
14192;DHT22;7177;48.572;7.838;2023-06-10T01:48:31;17.90;99.90
14192;DHT22;7177;48.572;7.838;2023-06-10T01:50:57;17.90;99.90
14192;DHT22;7177;48.572;7.838;2023-06-10T01:53:23;18.10;99.90
14192;DHT22;7177;48.572;7.838;2023-06-10T01:55:48;18.10;99.90
14192;DHT22;7177;48.572;7.838;2023-06-10T01:58:14;18.10;99.90
14192;DHT22;7177;48.572;7.838;2023-06-10T02:00:39;18.10;99.90
14192;DHT22;7177;48.572;7.838;2023-06-10T02:03:05;18.10;99.90
14192;DHT22;7177;48.572;7.838;2023-06-10T02:05:30;18.10;99.90
14192;DHT22;7177;48.572;7.838;2023-06-10T02:07:56;17.80;99.90
14192;DHT22;7177;48.572;7.838;2023-06-10T02:10:21;17.80;99.90
14192;DHT22;7177;48.572;7.838;2023-06-10T02:12:47;17.80;99.90
14192;DHT22;7177;48.572;7.838;2023-06-10T02:15:13;17.80;99.90
14192;DHT22;7177;48.572;7.838;2023-06-10T02:17:38;17.80;99.90
14192;DHT22;7177;48.572;7.838;2023-06-10T02:20:05;17.80;99.90
14192;DHT22;7177;48.572;7.838;2023-06-10T02:22:32;17.70;99.90
14192;DHT22;7177;48.572;7.838;2023-06-10T02:24:58;17.70;99.90
14192;DHT22;7177;48.572;7.838;2023-06-10T02:27:23;17.70;99.90
14192;DHT22;7177;48.572;7.838;2023-06-10T02:29:49;17.70;99.90
14192;DHT22;7177;48.572;7.838;2023-06-10T02:32:15;17.60;99.90
14192;DHT22;7177;48.572;7.838;2023-06-10T02:34:41;17.50;99.90
14192;DHT22;7177;48.572;7.838;2023-06-10T02:37:08;17.50;99.90
14192;DHT22;7177;48.572;7.838;2023-06-10T02:39:33;17.50;99.90
14192;DHT22;7177;48.572;7.838;2023-06-10T02:41:59;17.20;99.90
14192;DHT22;7177;48.572;7.838;2023-06-10T02:44:25;17.20;99.90
14192;DHT22;7177;48.572;7.838;2023-06-10T02:46:51;17.10;99.90
14192;DHT22;7177;48.572;7.838;2023-06-10T02:49:17;17.10;99.90
14192;DHT22;7177;48.572;7.838;2023-06-10T02:51:42;17.10;99.90
14192;DHT22;7177;48.572;7.838;2023-06-10T02:54:07;17.00;99.90
14192;DHT22;7177;48.572;7.838;2023-06-10T02:56:33;17.00;99.90
14192;DHT22;7177;48.572;7.838;2023-06-10T02:58:59;17.10;99.90
14192;DHT22;7177;48.572;7.838;2023-06-10T03:01:25;17.10;99.90
14192;DHT22;7177;48.572;7.838;2023-06-10T03:03:51;17.10;99.90
14192;DHT22;7177;48.572;7.838;2023-06-10T03:06:18;16.90;99.90
14192;DHT22;7177;48.572;7.838;2023-06-10T03:08:44;16.90;99.90
14192;DHT22;7177;48.572;7.838;2023-06-10T03:11:11;16.60;99.90
14192;DHT22;7177;48.572;7.838;2023-06-10T03:13:38;16.50;99.90
14192;DHT22;7177;48.572;7.838;2023-06-10T03:16:03;16.50;99.90
14192;DHT22;7177;48.572;7.838;2023-06-10T03:18:29;16.50;99.90
14192;DHT22;7177;48.572;7.838;2023-06-10T03:20:55;16.70;99.90
14192;DHT22;7177;48.572;7.838;2023-06-10T03:23:21;16.70;99.90
14192;DHT22;7177;48.572;7.838;2023-06-10T03:25:47;16.70;99.90
14192;DHT22;7177;48.572;7.838;2023-06-10T03:28:12;16.50;99.90
14192;DHT22;7177;48.572;7.838;2023-06-10T03:30:38;16.50;99.90
14192;DHT22;7177;48.572;7.838;2023-06-10T03:33:03;16.60;99.90
14192;DHT22;7177;48.572;7.838;2023-06-10T03:35:32;16.70;99.90
14192;DHT22;7177;48.572;7.838;2023-06-10T03:37:58;16.70;99.90
14192;DHT22;7177;48.572;7.838;2023-06-10T03:40:24;16.80;99.90
14192;DHT22;7177;48.572;7.838;2023-06-10T03:42:50;16.90;99.90
14192;DHT22;7177;48.572;7.838;2023-06-10T03:45:15;16.90;99.90
14192;DHT22;7177;48.572;7.838;2023-06-10T03:47:41;16.80;99.90
14192;DHT22;7177;48.572;7.838;2023-06-10T03:50:08;17.00;99.90
14192;DHT22;7177;48.572;7.838;2023-06-10T03:52:35;16.90;99.90
14192;DHT22;7177;48.572;7.838;2023-06-10T03:55:01;17.00;99.90
14192;DHT22;7177;48.572;7.838;2023-06-10T03:57:27;17.10;99.90
14192;DHT22;7177;48.572;7.838;2023-06-10T03:59:52;17.10;99.90
14192;DHT22;7177;48.572;7.838;2023-06-10T04:02:18;17.10;99.90
14192;DHT22;7177;48.572;7.838;2023-06-10T04:04:43;17.20;99.90
14192;DHT22;7177;48.572;7.838;2023-06-10T04:09:36;17.00;99.90
14192;DHT22;7177;48.572;7.838;2023-06-10T04:12:02;17.20;99.90
14192;DHT22;7177;48.572;7.838;2023-06-10T04:16:57;17.30;99.90
14192;DHT22;7177;48.572;7.838;2023-06-10T04:19:22;17.30;99.90
14192;DHT22;7177;48.572;7.838;2023-06-10T04:21:48;17.50;99.90
14192;DHT22;7177;48.572;7.838;2023-06-10T04:24:13;17.50;99.90
14192;DHT22;7177;48.572;7.838;2023-06-10T04:26:39;17.60;99.90
14192;DHT22;7177;48.572;7.838;2023-06-10T04:29:05;17.60;99.90
14192;DHT22;7177;48.572;7.838;2023-06-10T04:31:30;17.70;99.90
14192;DHT22;7177;48.572;7.838;2023-06-10T04:33:57;17.80;99.90
14192;DHT22;7177;48.572;7.838;2023-06-10T04:36:23;17.90;99.90
14192;DHT22;7177;48.572;7.838;2023-06-10T04:38:49;18.10;99.90
14192;DHT22;7177;48.572;7.838;2023-06-10T04:41:14;18.20;99.90
14192;DHT22;7177;48.572;7.838;2023-06-10T04:43:39;18.20;99.90
14192;DHT22;7177;48.572;7.838;2023-06-10T04:46:05;18.40;99.90
14192;DHT22;7177;48.572;7.838;2023-06-10T04:48:31;18.50;99.90
14192;DHT22;7177;48.572;7.838;2023-06-10T04:50:57;18.50;99.90
14192;DHT22;7177;48.572;7.838;2023-06-10T04:53:22;18.70;99.90
14192;DHT22;7177;48.572;7.838;2023-06-10T04:55:48;18.70;99.90
14192;DHT22;7177;48.572;7.838;2023-06-10T04:58:14;19.40;99.90
14192;DHT22;7177;48.572;7.838;2023-06-10T05:00:40;20.10;99.90
14192;DHT22;7177;48.572;7.838;2023-06-10T05:03:06;20.30;99.90
14192;DHT22;7177;48.572;7.838;2023-06-10T05:05:31;21.40;99.90
14192;DHT22;7177;48.572;7.838;2023-06-10T05:07:57;21.70;99.90
14192;DHT22;7177;48.572;7.838;2023-06-10T05:10:22;22.00;99.90
14192;DHT22;7177;48.572;7.838;2023-06-10T05:12:48;22.10;99.90
14192;DHT22;7177;48.572;7.838;2023-06-10T05:15:13;22.10;99.90
14192;DHT22;7177;48.572;7.838;2023-06-10T05:17:39;22.30;99.90
14192;DHT22;7177;48.572;7.838;2023-06-10T05:20:05;22.40;99.90
14192;DHT22;7177;48.572;7.838;2023-06-10T05:22:31;22.60;99.90
14192;DHT22;7177;48.572;7.838;2023-06-10T05:24:57;22.70;99.90
14192;DHT22;7177;48.572;7.838;2023-06-10T05:27:23;22.70;99.90
14192;DHT22;7177;48.572;7.838;2023-06-10T05:29:49;22.80;99.90
14192;DHT22;7177;48.572;7.838;2023-06-10T05:32:17;22.70;99.90
14192;DHT22;7177;48.572;7.838;2023-06-10T05:34:42;22.90;99.90
14192;DHT22;7177;48.572;7.838;2023-06-10T05:37:08;22.90;99.90
14192;DHT22;7177;48.572;7.838;2023-06-10T05:39:35;22.90;99.90
14192;DHT22;7177;48.572;7.838;2023-06-10T05:42:04;23.00;99.90
14192;DHT22;7177;48.572;7.838;2023-06-10T05:44:29;23.00;99.90
14192;DHT22;7177;48.572;7.838;2023-06-10T05:46:55;23.10;99.90
14192;DHT22;7177;48.572;7.838;2023-06-10T05:49:20;23.20;99.90
14192;DHT22;7177;48.572;7.838;2023-06-10T05:51:46;23.20;99.90
14192;DHT22;7177;48.572;7.838;2023-06-10T05:54:11;23.40;99.90
14192;DHT22;7177;48.572;7.838;2023-06-10T05:56:37;23.40;99.90
14192;DHT22;7177;48.572;7.838;2023-06-10T05:59:02;23.60;99.90
14192;DHT22;7177;48.572;7.838;2023-06-10T06:01:28;23.60;99.90
14192;DHT22;7177;48.572;7.838;2023-06-10T06:03:54;23.70;99.90
14192;DHT22;7177;48.572;7.838;2023-06-10T06:06:19;23.60;99.90
14192;DHT22;7177;48.572;7.838;2023-06-10T06:08:46;23.70;99.90
14192;DHT22;7177;48.572;7.838;2023-06-10T06:11:11;23.80;99.90
14192;DHT22;7177;48.572;7.838;2023-06-10T06:13:37;24.00;99.90
14192;DHT22;7177;48.572;7.838;2023-06-10T06:16:02;24.00;99.90
14192;DHT22;7177;48.572;7.838;2023-06-10T06:18:28;24.10;99.90
14192;DHT22;7177;48.572;7.838;2023-06-10T06:20:53;24.00;99.90
14192;DHT22;7177;48.572;7.838;2023-06-10T06:23:19;24.00;99.90
14192;DHT22;7177;48.572;7.838;2023-06-10T06:25:44;23.90;99.90
14192;DHT22;7177;48.572;7.838;2023-06-10T06:28:10;23.90;99.90
14192;DHT22;7177;48.572;7.838;2023-06-10T06:30:35;24.10;99.90
14192;DHT22;7177;48.572;7.838;2023-06-10T06:33:02;24.20;99.90
14192;DHT22;7177;48.572;7.838;2023-06-10T06:35:27;24.30;99.90
14192;DHT22;7177;48.572;7.838;2023-06-10T06:37:55;24.30;99.90
14192;DHT22;7177;48.572;7.838;2023-06-10T06:40:21;24.40;99.90
14192;DHT22;7177;48.572;7.838;2023-06-10T06:42:46;24.60;99.90
14192;DHT22;7177;48.572;7.838;2023-06-10T06:45:12;24.60;99.90
14192;DHT22;7177;48.572;7.838;2023-06-10T06:47:38;24.40;99.90
14192;DHT22;7177;48.572;7.838;2023-06-10T06:50:03;24.50;99.90
14192;DHT22;7177;48.572;7.838;2023-06-10T06:52:29;24.70;99.90
14192;DHT22;7177;48.572;7.838;2023-06-10T06:54:55;24.80;99.90
14192;DHT22;7177;48.572;7.838;2023-06-10T06:57:20;24.90;99.90
14192;DHT22;7177;48.572;7.838;2023-06-10T06:59:46;25.10;99.90
14192;DHT22;7177;48.572;7.838;2023-06-10T07:02:11;25.30;99.90
14192;DHT22;7177;48.572;7.838;2023-06-10T07:04:37;25.40;99.90
14192;DHT22;7177;48.572;7.838;2023-06-10T07:07:04;25.30;99.90
14192;DHT22;7177;48.572;7.838;2023-06-10T07:09:29;25.30;99.90
14192;DHT22;7177;48.572;7.838;2023-06-10T07:11:55;25.30;99.90
14192;DHT22;7177;48.572;7.838;2023-06-10T07:14:20;25.30;99.90
14192;DHT22;7177;48.572;7.838;2023-06-10T07:16:46;25.30;99.90
14192;DHT22;7177;48.572;7.838;2023-06-10T07:19:13;25.60;99.90
14192;DHT22;7177;48.572;7.838;2023-06-10T07:21:39;25.80;99.90
14192;DHT22;7177;48.572;7.838;2023-06-10T07:24:05;26.00;99.90
14192;DHT22;7177;48.572;7.838;2023-06-10T07:26:31;26.30;99.90
14192;DHT22;7177;48.572;7.838;2023-06-10T07:28:56;26.50;99.90
14192;DHT22;7177;48.572;7.838;2023-06-10T07:31:23;26.50;99.90
14192;DHT22;7177;48.572;7.838;2023-06-10T07:33:49;26.50;99.90
14192;DHT22;7177;48.572;7.838;2023-06-10T07:36:15;26.80;99.90
14192;DHT22;7177;48.572;7.838;2023-06-10T07:38:40;26.70;99.90
14192;DHT22;7177;48.572;7.838;2023-06-10T07:41:07;27.80;99.90
14192;DHT22;7177;48.572;7.838;2023-06-10T07:43:33;26.90;99.90
14192;DHT22;7177;48.572;7.838;2023-06-10T07:45:58;26.90;99.90
14192;DHT22;7177;48.572;7.838;2023-06-10T07:48:25;27.00;99.90
14192;DHT22;7177;48.572;7.838;2023-06-10T07:50:51;27.10;99.90
14192;DHT22;7177;48.572;7.838;2023-06-10T07:53:17;27.20;99.90
14192;DHT22;7177;48.572;7.838;2023-06-10T07:55:42;27.40;99.90
14192;DHT22;7177;48.572;7.838;2023-06-10T07:58:08;27.40;99.90
14192;DHT22;7177;48.572;7.838;2023-06-10T08:00:33;27.50;99.90
14192;DHT22;7177;48.572;7.838;2023-06-10T08:02:59;27.70;99.90
14192;DHT22;7177;48.572;7.838;2023-06-10T08:05:25;27.90;99.90
14192;DHT22;7177;48.572;7.838;2023-06-10T08:07:51;27.60;99.90
14192;DHT22;7177;48.572;7.838;2023-06-10T08:10:17;27.70;99.90
14192;DHT22;7177;48.572;7.838;2023-06-10T08:12:42;27.90;99.90
14192;DHT22;7177;48.572;7.838;2023-06-10T08:15:08;28.00;99.90
14192;DHT22;7177;48.572;7.838;2023-06-10T08:17:34;28.30;98.80
14192;DHT22;7177;48.572;7.838;2023-06-10T08:20:00;28.30;97.80
14192;DHT22;7177;48.572;7.838;2023-06-10T08:22:26;28.30;99.00
14192;DHT22;7177;48.572;7.838;2023-06-10T08:24:52;28.00;99.50
14192;DHT22;7177;48.572;7.838;2023-06-10T08:27:17;27.90;99.00
14192;DHT22;7177;48.572;7.838;2023-06-10T08:29:43;28.20;98.20
14192;DHT22;7177;48.572;7.838;2023-06-10T08:32:08;28.60;97.60
14192;DHT22;7177;48.572;7.838;2023-06-10T08:34:34;28.90;96.80
14192;DHT22;7177;48.572;7.838;2023-06-10T08:37:03;29.20;95.70
14192;DHT22;7177;48.572;7.838;2023-06-10T08:39:29;29.50;94.90
14192;DHT22;7177;48.572;7.838;2023-06-10T08:44:40;29.50;96.60
14192;DHT22;7177;48.572;7.838;2023-06-10T08:47:14;29.90;96.10
14192;DHT22;7177;48.572;7.838;2023-06-10T08:49:45;29.90;95.40
14192;DHT22;7177;48.572;7.838;2023-06-10T08:52:14;30.30;93.90
14192;DHT22;7177;48.572;7.838;2023-06-10T08:54:43;30.40;93.40
14192;DHT22;7177;48.572;7.838;2023-06-10T08:57:10;30.50;93.60
14192;DHT22;7177;48.572;7.838;2023-06-10T08:59:36;30.50;92.60
14192;DHT22;7177;48.572;7.838;2023-06-10T09:02:02;30.70;94.00
14192;DHT22;7177;48.572;7.838;2023-06-10T09:04:29;30.80;92.60
14192;DHT22;7177;48.572;7.838;2023-06-10T09:06:56;30.70;92.50
14192;DHT22;7177;48.572;7.838;2023-06-10T09:09:23;31.00;92.90
14192;DHT22;7177;48.572;7.838;2023-06-10T09:11:50;31.30;93.60
14192;DHT22;7177;48.572;7.838;2023-06-10T09:14:16;31.20;93.10
14192;DHT22;7177;48.572;7.838;2023-06-10T09:16:42;31.40;91.70
14192;DHT22;7177;48.572;7.838;2023-06-10T09:19:08;31.30;90.70
14192;DHT22;7177;48.572;7.838;2023-06-10T09:21:34;31.40;90.80
14192;DHT22;7177;48.572;7.838;2023-06-10T09:24:01;31.50;91.20
14192;DHT22;7177;48.572;7.838;2023-06-10T09:26:29;31.50;91.50
14192;DHT22;7177;48.572;7.838;2023-06-10T09:29:03;31.50;90.80
14192;DHT22;7177;48.572;7.838;2023-06-10T09:31:30;31.60;90.90
14192;DHT22;7177;48.572;7.838;2023-06-10T09:34:08;32.00;90.60
14192;DHT22;7177;48.572;7.838;2023-06-10T09:36:35;32.20;91.20
14192;DHT22;7177;48.572;7.838;2023-06-10T09:39:01;32.20;90.30
14192;DHT22;7177;48.572;7.838;2023-06-10T09:41:35;32.10;90.40
14192;DHT22;7177;48.572;7.838;2023-06-10T09:44:01;31.80;90.40
14192;DHT22;7177;48.572;7.838;2023-06-10T09:46:31;32.30;90.50
14192;DHT22;7177;48.572;7.838;2023-06-10T09:49:00;32.60;85.60
14192;DHT22;7177;48.572;7.838;2023-06-10T09:51:25;32.70;89.20
14192;DHT22;7177;48.572;7.838;2023-06-10T09:53:51;32.90;85.50
14192;DHT22;7177;48.572;7.838;2023-06-10T09:56:17;33.00;84.70
14192;DHT22;7177;48.572;7.838;2023-06-10T09:58:44;33.10;80.70
14192;DHT22;7177;48.572;7.838;2023-06-10T10:01:14;33.20;78.80
14192;DHT22;7177;48.572;7.838;2023-06-10T10:03:47;33.10;79.70
14192;DHT22;7177;48.572;7.838;2023-06-10T10:06:15;33.10;81.50
14192;DHT22;7177;48.572;7.838;2023-06-10T10:08:41;33.10;81.90
14192;DHT22;7177;48.572;7.838;2023-06-10T10:11:06;32.90;80.70
14192;DHT22;7177;48.572;7.838;2023-06-10T10:13:34;32.80;81.90
14192;DHT22;7177;48.572;7.838;2023-06-10T10:16:06;33.00;78.90
14192;DHT22;7177;48.572;7.838;2023-06-10T10:18:35;33.10;77.50
14192;DHT22;7177;48.572;7.838;2023-06-10T10:21:06;33.30;78.90
14192;DHT22;7177;48.572;7.838;2023-06-10T10:26:25;33.60;78.30
14192;DHT22;7177;48.572;7.838;2023-06-10T10:29:10;33.60;79.20
14192;DHT22;7177;48.572;7.838;2023-06-10T10:31:39;33.30;79.30
14192;DHT22;7177;48.572;7.838;2023-06-10T10:34:07;32.90;80.60
14192;DHT22;7177;48.572;7.838;2023-06-10T10:36:35;33.10;81.40
14192;DHT22;7177;48.572;7.838;2023-06-10T10:39:02;33.40;80.30
14192;DHT22;7177;48.572;7.838;2023-06-10T10:41:31;33.70;78.60
14192;DHT22;7177;48.572;7.838;2023-06-10T10:43:56;34.10;77.20
14192;DHT22;7177;48.572;7.838;2023-06-10T10:46:23;34.50;75.50
14192;DHT22;7177;48.572;7.838;2023-06-10T10:48:52;34.70;75.20
14192;DHT22;7177;48.572;7.838;2023-06-10T10:51:19;34.80;73.00
14192;DHT22;7177;48.572;7.838;2023-06-10T10:54:14;34.20;70.50
14192;DHT22;7177;48.572;7.838;2023-06-10T10:57:06;34.30;72.00
14192;DHT22;7177;48.572;7.838;2023-06-10T10:59:25;34.10;72.10
14192;DHT22;7177;48.572;7.838;2023-06-10T11:02:08;34.10;72.70
14192;DHT22;7177;48.572;7.838;2023-06-10T11:04:33;34.20;70.10
14192;DHT22;7177;48.572;7.838;2023-06-10T11:07:06;34.50;71.10
14192;DHT22;7177;48.572;7.838;2023-06-10T11:09:32;34.70;71.80
14192;DHT22;7177;48.572;7.838;2023-06-10T11:11:58;34.10;70.70
14192;DHT22;7177;48.572;7.838;2023-06-10T11:14:29;33.60;72.80
14192;DHT22;7177;48.572;7.838;2023-06-10T11:16:57;33.60;72.90
14192;DHT22;7177;48.572;7.838;2023-06-10T11:19:36;34.10;72.70
14192;DHT22;7177;48.572;7.838;2023-06-10T11:22:05;34.40;68.70
14192;DHT22;7177;48.572;7.838;2023-06-10T11:24:31;34.50;68.60
14192;DHT22;7177;48.572;7.838;2023-06-10T11:27:15;34.60;68.50
14192;DHT22;7177;48.572;7.838;2023-06-10T11:30:17;35.10;67.40
14192;DHT22;7177;48.572;7.838;2023-06-10T11:32:43;35.80;64.50
14192;DHT22;7177;48.572;7.838;2023-06-10T11:35:09;35.90;63.80
14192;DHT22;7177;48.572;7.838;2023-06-10T11:37:35;35.80;63.60
14192;DHT22;7177;48.572;7.838;2023-06-10T11:40:02;35.90;63.20
14192;DHT22;7177;48.572;7.838;2023-06-10T11:42:28;36.00;63.80
14192;DHT22;7177;48.572;7.838;2023-06-10T11:44:54;35.70;64.70
14192;DHT22;7177;48.572;7.838;2023-06-10T11:47:20;35.50;65.20
14192;DHT22;7177;48.572;7.838;2023-06-10T11:49:46;35.00;62.40
14192;DHT22;7177;48.572;7.838;2023-06-10T11:52:29;34.20;65.00
14192;DHT22;7177;48.572;7.838;2023-06-10T11:54:58;34.40;67.40
14192;DHT22;7177;48.572;7.838;2023-06-10T11:57:23;34.90;64.00
14192;DHT22;7177;48.572;7.838;2023-06-10T11:59:49;35.30;63.50
14192;DHT22;7177;48.572;7.838;2023-06-10T12:02:17;35.70;64.20
14192;DHT22;7177;48.572;7.838;2023-06-10T12:04:44;35.50;64.60
14192;DHT22;7177;48.572;7.838;2023-06-10T12:07:17;35.10;65.20
14192;DHT22;7177;48.572;7.838;2023-06-10T12:09:43;34.60;65.90
14192;DHT22;7177;48.572;7.838;2023-06-10T12:12:09;34.50;65.50
14192;DHT22;7177;48.572;7.838;2023-06-10T12:14:53;33.80;66.60
14192;DHT22;7177;48.572;7.838;2023-06-10T12:19:49;32.70;66.70
14192;DHT22;7177;48.572;7.838;2023-06-10T12:22:14;32.20;68.20
14192;DHT22;7177;48.572;7.838;2023-06-10T12:25:04;31.70;68.80
14192;DHT22;7177;48.572;7.838;2023-06-10T12:27:32;31.30;71.30
14192;DHT22;7177;48.572;7.838;2023-06-10T12:29:59;30.90;71.80
14192;DHT22;7177;48.572;7.838;2023-06-10T12:32:43;31.10;71.70
14192;DHT22;7177;48.572;7.838;2023-06-10T12:35:11;32.00;73.20
14192;DHT22;7177;48.572;7.838;2023-06-10T12:37:39;32.80;72.50
14192;DHT22;7177;48.572;7.838;2023-06-10T12:40:05;33.10;70.70
14192;DHT22;7177;48.572;7.838;2023-06-10T12:42:35;32.90;69.20
14192;DHT22;7177;48.572;7.838;2023-06-10T12:45:01;32.60;67.90
14192;DHT22;7177;48.572;7.838;2023-06-10T12:47:34;32.20;69.80
14192;DHT22;7177;48.572;7.838;2023-06-10T12:50:10;31.60;70.50
14192;DHT22;7177;48.572;7.838;2023-06-10T12:52:37;31.30;71.20
14192;DHT22;7177;48.572;7.838;2023-06-10T12:55:02;30.90;71.00
14192;DHT22;7177;48.572;7.838;2023-06-10T12:57:29;30.70;72.40
14192;DHT22;7177;48.572;7.838;2023-06-10T12:59:55;30.80;74.30
14192;DHT22;7177;48.572;7.838;2023-06-10T13:02:25;31.40;73.60
14192;DHT22;7177;48.572;7.838;2023-06-10T13:04:51;32.10;71.50
14192;DHT22;7177;48.572;7.838;2023-06-10T13:07:17;32.70;71.20
14192;DHT22;7177;48.572;7.838;2023-06-10T13:09:43;33.20;68.50
14192;DHT22;7177;48.572;7.838;2023-06-10T13:12:09;33.90;68.60
14192;DHT22;7177;48.572;7.838;2023-06-10T13:14:35;34.20;67.60
14192;DHT22;7177;48.572;7.838;2023-06-10T13:17:04;34.60;67.30
14192;DHT22;7177;48.572;7.838;2023-06-10T13:19:31;34.90;65.30
14192;DHT22;7177;48.572;7.838;2023-06-10T13:21:57;34.70;65.90
14192;DHT22;7177;48.572;7.838;2023-06-10T13:24:22;34.60;65.60
14192;DHT22;7177;48.572;7.838;2023-06-10T13:26:48;34.60;65.40
14192;DHT22;7177;48.572;7.838;2023-06-10T13:29:14;34.70;64.00
14192;DHT22;7177;48.572;7.838;2023-06-10T13:31:40;34.80;64.10
14192;DHT22;7177;48.572;7.838;2023-06-10T13:34:06;35.00;64.20
14192;DHT22;7177;48.572;7.838;2023-06-10T13:36:32;34.90;64.50
14192;DHT22;7177;48.572;7.838;2023-06-10T13:38:57;34.80;65.60
14192;DHT22;7177;48.572;7.838;2023-06-10T13:41:23;35.10;65.30
14192;DHT22;7177;48.572;7.838;2023-06-10T13:43:49;35.10;64.60
14192;DHT22;7177;48.572;7.838;2023-06-10T13:46:15;34.70;62.30
14192;DHT22;7177;48.572;7.838;2023-06-10T13:48:40;34.20;62.90
14192;DHT22;7177;48.572;7.838;2023-06-10T13:51:06;34.00;63.60
14192;DHT22;7177;48.572;7.838;2023-06-10T13:53:32;33.20;65.10
14192;DHT22;7177;48.572;7.838;2023-06-10T13:55:57;32.90;66.40
14192;DHT22;7177;48.572;7.838;2023-06-10T13:58:23;33.10;63.80
14192;DHT22;7177;48.572;7.838;2023-06-10T14:00:49;33.30;64.80
14192;DHT22;7177;48.572;7.838;2023-06-10T14:03:14;33.70;65.70
14192;DHT22;7177;48.572;7.838;2023-06-10T14:05:40;33.80;65.00
14192;DHT22;7177;48.572;7.838;2023-06-10T14:08:05;33.90;64.90
14192;DHT22;7177;48.572;7.838;2023-06-10T14:10:31;33.80;63.30
14192;DHT22;7177;48.572;7.838;2023-06-10T14:12:57;33.90;63.50
14192;DHT22;7177;48.572;7.838;2023-06-10T14:15:22;33.90;63.00
14192;DHT22;7177;48.572;7.838;2023-06-10T14:17:48;34.30;61.70
14192;DHT22;7177;48.572;7.838;2023-06-10T14:20:13;34.50;62.70
14192;DHT22;7177;48.572;7.838;2023-06-10T14:22:39;34.50;59.60
14192;DHT22;7177;48.572;7.838;2023-06-10T14:25:05;34.40;61.60
14192;DHT22;7177;48.572;7.838;2023-06-10T14:27:31;34.40;61.40
14192;DHT22;7177;48.572;7.838;2023-06-10T14:29:56;34.40;63.20
14192;DHT22;7177;48.572;7.838;2023-06-10T14:32:22;34.30;62.40
14192;DHT22;7177;48.572;7.838;2023-06-10T14:34:47;34.30;63.70
14192;DHT22;7177;48.572;7.838;2023-06-10T14:37:13;34.50;63.10
14192;DHT22;7177;48.572;7.838;2023-06-10T14:39:39;34.40;61.40
14192;DHT22;7177;48.572;7.838;2023-06-10T14:42:04;34.50;62.10
14192;DHT22;7177;48.572;7.838;2023-06-10T14:44:30;34.30;59.70
14192;DHT22;7177;48.572;7.838;2023-06-10T14:46:56;34.10;61.50
14192;DHT22;7177;48.572;7.838;2023-06-10T14:49:22;33.90;63.00
14192;DHT22;7177;48.572;7.838;2023-06-10T14:51:47;34.00;63.50
14192;DHT22;7177;48.572;7.838;2023-06-10T14:54:15;34.10;63.90
14192;DHT22;7177;48.572;7.838;2023-06-10T14:56:41;34.00;62.60
14192;DHT22;7177;48.572;7.838;2023-06-10T14:59:06;33.90;64.80
14192;DHT22;7177;48.572;7.838;2023-06-10T15:01:32;33.70;64.30
14192;DHT22;7177;48.572;7.838;2023-06-10T15:03:57;33.80;63.70
14192;DHT22;7177;48.572;7.838;2023-06-10T15:06:23;33.80;61.70
14192;DHT22;7177;48.572;7.838;2023-06-10T15:08:48;33.90;60.90
14192;DHT22;7177;48.572;7.838;2023-06-10T15:11:15;33.60;61.70
14192;DHT22;7177;48.572;7.838;2023-06-10T15:13:40;33.60;62.90
14192;DHT22;7177;48.572;7.838;2023-06-10T15:16:06;33.50;61.90
14192;DHT22;7177;48.572;7.838;2023-06-10T15:18:32;33.30;60.90
14192;DHT22;7177;48.572;7.838;2023-06-10T15:20:58;33.30;62.00
14192;DHT22;7177;48.572;7.838;2023-06-10T15:23:23;33.30;62.00
14192;DHT22;7177;48.572;7.838;2023-06-10T15:25:49;33.00;62.00
14192;DHT22;7177;48.572;7.838;2023-06-10T15:28:14;33.10;63.60
14192;DHT22;7177;48.572;7.838;2023-06-10T15:30:40;33.10;63.80
14192;DHT22;7177;48.572;7.838;2023-06-10T15:33:05;33.00;62.00
14192;DHT22;7177;48.572;7.838;2023-06-10T15:35:32;32.70;62.70
14192;DHT22;7177;48.572;7.838;2023-06-10T15:37:57;32.70;62.30
14192;DHT22;7177;48.572;7.838;2023-06-10T15:40:23;32.90;62.70
14192;DHT22;7177;48.572;7.838;2023-06-10T15:42:48;33.00;62.90
14192;DHT22;7177;48.572;7.838;2023-06-10T15:45:14;32.90;62.90
14192;DHT22;7177;48.572;7.838;2023-06-10T15:47:39;32.90;63.30
14192;DHT22;7177;48.572;7.838;2023-06-10T15:50:07;32.70;62.10
14192;DHT22;7177;48.572;7.838;2023-06-10T15:52:32;32.70;61.90
14192;DHT22;7177;48.572;7.838;2023-06-10T15:54:58;32.60;62.00
14192;DHT22;7177;48.572;7.838;2023-06-10T15:57:23;32.50;61.90
14192;DHT22;7177;48.572;7.838;2023-06-10T15:59:49;32.30;62.90